Tega Cay, South Carolina
Current Conditions -  °F | °C
As of 4:54 AM on Friday 28 Nov 2014 (Local Time) from KUZA Reporting Station
Clear Clear  
Wind Chill: 23°   Ceiling: Unl
Heat Index: 30°   Visibility: 10mi
Dew Point: 20°   Wind: 7mph
Humidity: 66%   Direction: 330°NNW
Pressure: 30.33"   Gusts: NA
Location:  35.0493°N, 80.9623°W
Report Text: KUZA 280954Z AUTO 33006KT 10SM CLR M01/M07 A3033 RMK AO2 SLP278 T10111067 $
Loading
Personal Weather Stations






























Interactive Weather Map New forecast layout! Learn more

10-Day Weather Forecast

Advertisements
Track Severe Weather on mobile